To NAV CANADA Home Page Login to a new session Search on AWWS site Feedback and Comments Disclaimer Vers la page française équivalente Tips FAQ What's new on the site To the Forecasts and Observations / NOTAM section To "File a Flight Plan" website Publications and other links Update of the User's profile FIC Telephone Numbers My Weather Data Folder Route Weather Data Regional Weather Data Local Weather Data To the Forecasts and Observations / NOTAM section
Request Generated 04/23/2014 at 22:04:14 UTC . Weather information available at that time is displayed.

METAR/TAF

TALOYOAK/NU    

METAR CYYH 232200Z 25011KT 6SM -SN DRSN FEW007 BKN025 BKN090 M13/M17 A3024 RMK ST1SC2AC2 SLP243=
METAR CYYH 232100Z 27013KT 6SM -SN DRSN FEW007 BKN025 BKN090 M13/M16 A3024 RMK ST1SC2AC2 SLP244=
METAR CYYH 232000Z 25014KT 13SM DRSN FEW007 SCT025 BKN090 M14/M17 A3024 RMK SF0SC2AC2 IC SLP245=

TAF CYYH 231738Z 2318/2406 27015KT P6SM BKN040 TEMPO 2318/2406 5SM
-SN BR SCT005 BKN020
BECMG 2401/2403 32012KT
RMK NXT FCST BY 240000Z=
Your time UTC time
Weather data provided by Environment Canada and NAV CANADA